Main page
METAR-TAF:

METAR-TAF

Airports :

Istres-Le Tubé Air Base

Istres, France

latitude: 43-31N, longitude: 004-56E, elevation: 23 m

Current weather observation

The report was made 17 minutes ago, at 21:00 UTC
Wind 3 kt from the West/Northwest
Temperature 24°C
Humidity 78%
Pressure 1014 hPa
Visibility 10 km or more
no clouds below 1500 m and no cumulonimbus

METAR: LFMI 282100Z AUTO 29003KT CAVOK 24/20 Q1014 NOSIG

Time: 23:17 (21:17 UTC)

Forecast

The report was made 1 hour and 17 minutes ago, at 20:00 UTC
Forecast valid from 28 at 21 UTC to 29 at 21 UTC
Wind 5 kt from the West/Northwest
Visibility 10 km or more
no clouds below 1500 m and no cumulonimbus
Temporary
from 29 at 04 UTC to 29 at 09 UTC
Wind 10 kt from the North
Becoming
from 29 at 10 UTC to 29 at 12 UTC
Wind 10 kt from the Southwest
Becoming
from 29 at 19 UTC to 29 at 21 UTC
Wind 3 kt from variable directions

TAF: LFMI 282000Z 2821/2921 30005KT CAVOK TX33/2912Z TN20/2905Z TEMPO 2904/2909 36010KT BECMG 2910/2912 22010KT BECMG 2919/2921 VRB03KT

Weather observations and forecasts of more than 4000 airports (METAR and TAF reports).

The available stations are represented by yellow and red dots on the map.

Hover mouse over dot to see the name of the station.

Then click to see weather observations and forecasts.

To change the map : click on the green buttons with a black cross to zoom in, on the green button with a dash to zoom out, or on the green arrows for adjacent maps.


METAR-TAF: